<?xml version="1.0" encoding="UTF-8" standalone="no" ?>
<gpx xmlns="http://www.topografix.com/GPX/1/1" xmlns:xsi="http://www.w3.org/2001/XMLSchema-instance" xsi:schemaLocation="http://www.topografix.com/GPX/1/1 http://www.topografix.com/GPX/1/1/gpx.xsd" version="1.1" creator="VisuGPX - https://www.visugpx.com">
  <metadata>
    <name>BRC Charente 2024 Grottes de Meschers</name>
    <desc><![CDATA[Aller retour en bord de mer avec des descentes et remontées des plages.]]></desc>
  </metadata>
  <trk>
    <name><![CDATA[BRC Charente 2024 Grottesde Meschers ]]></name>
    <trkseg>
      <trkpt lat="45.58794" lon="-0.98613">
        <ele>18</ele>
        <time>2024-09-15T09:02:40+02:00</time>
      </trkpt>
      <trkpt lat="45.58791" lon="-0.98645">
        <ele>19</ele>
        <time>2024-09-15T09:04:30+02:00</time>
      </trkpt>
      <trkpt lat="45.58782" lon="-0.98676">
        <ele>19</ele>
        <time>2024-09-15T09:05:26+02:00</time>
      </trkpt>
      <trkpt lat="45.58783" lon="-0.98708">
        <ele>18</ele>
        <time>2024-09-15T09:05:53+02:00</time>
      </trkpt>
      <trkpt lat="45.58786" lon="-0.9874">
        <ele>18</ele>
        <time>2024-09-15T09:06:13+02:00</time>
      </trkpt>
      <trkpt lat="45.5879" lon="-0.98774">
        <ele>16</ele>
        <time>2024-09-15T09:06:38+02:00</time>
      </trkpt>
      <trkpt lat="45.58788" lon="-0.98807">
        <ele>15</ele>
        <time>2024-09-15T09:07:03+02:00</time>
      </trkpt>
      <trkpt lat="45.58801" lon="-0.98834">
        <ele>14</ele>
        <time>2024-09-15T09:07:59+02:00</time>
      </trkpt>
      <trkpt lat="45.58799" lon="-0.98867">
        <ele>8</ele>
        <time>2024-09-15T09:09:23+02:00</time>
      </trkpt>
      <trkpt lat="45.58791" lon="-0.98899">
        <ele>3</ele>
        <time>2024-09-15T09:11:51+02:00</time>
      </trkpt>
      <trkpt lat="45.58784" lon="-0.9893">
        <ele>3.6</ele>
        <time>2024-09-15T09:14:53+02:00</time>
      </trkpt>
      <trkpt lat="45.58776" lon="-0.9896">
        <ele>3</ele>
        <time>2024-09-15T09:15:19+02:00</time>
      </trkpt>
      <trkpt lat="45.58766" lon="-0.98991">
        <ele>2</ele>
        <time>2024-09-15T09:15:51+02:00</time>
      </trkpt>
      <trkpt lat="45.58744" lon="-0.99005">
        <ele>1</ele>
        <time>2024-09-15T09:16:29+02:00</time>
      </trkpt>
      <trkpt lat="45.58721" lon="-0.98996">
        <ele>1.1</ele>
        <time>2024-09-15T09:17:09+02:00</time>
      </trkpt>
      <trkpt lat="45.58699" lon="-0.98988">
        <ele>1.4</ele>
        <time>2024-09-15T09:17:32+02:00</time>
      </trkpt>
      <trkpt lat="45.58677" lon="-0.98979">
        <ele>1.3</ele>
        <time>2024-09-15T09:17:55+02:00</time>
      </trkpt>
      <trkpt lat="45.58653" lon="-0.98971">
        <ele>1.1</ele>
        <time>2024-09-15T09:18:12+02:00</time>
      </trkpt>
      <trkpt lat="45.5863" lon="-0.98964">
        <ele>1.3</ele>
        <time>2024-09-15T09:18:30+02:00</time>
      </trkpt>
      <trkpt lat="45.58607" lon="-0.98955">
        <ele>1.5</ele>
        <time>2024-09-15T09:18:45+02:00</time>
      </trkpt>
      <trkpt lat="45.58585" lon="-0.98948">
        <ele>1</ele>
        <time>2024-09-15T09:19:01+02:00</time>
      </trkpt>
      <trkpt lat="45.58562" lon="-0.98939">
        <ele>1.2</ele>
        <time>2024-09-15T09:19:21+02:00</time>
      </trkpt>
      <trkpt lat="45.58539" lon="-0.98937">
        <ele>1.3</ele>
        <time>2024-09-15T09:19:43+02:00</time>
      </trkpt>
      <trkpt lat="45.58517" lon="-0.98935">
        <ele>1.3</ele>
        <time>2024-09-15T09:20:03+02:00</time>
      </trkpt>
      <trkpt lat="45.58494" lon="-0.98935">
        <ele>1.3</ele>
        <time>2024-09-15T09:20:24+02:00</time>
      </trkpt>
      <trkpt lat="45.58471" lon="-0.98932">
        <ele>1</ele>
        <time>2024-09-15T09:20:45+02:00</time>
      </trkpt>
      <trkpt lat="45.58448" lon="-0.98933">
        <ele>1</ele>
        <time>2024-09-15T09:21:05+02:00</time>
      </trkpt>
      <trkpt lat="45.58426" lon="-0.98935">
        <ele>1</ele>
        <time>2024-09-15T09:21:25+02:00</time>
      </trkpt>
      <trkpt lat="45.58403" lon="-0.98937">
        <ele>1</ele>
        <time>2024-09-15T09:21:45+02:00</time>
      </trkpt>
      <trkpt lat="45.58379" lon="-0.98941">
        <ele>1</ele>
        <time>2024-09-15T09:22:05+02:00</time>
      </trkpt>
      <trkpt lat="45.58356" lon="-0.98944">
        <ele>1</ele>
        <time>2024-09-15T09:22:25+02:00</time>
      </trkpt>
      <trkpt lat="45.58333" lon="-0.9895">
        <ele>1</ele>
        <time>2024-09-15T09:22:45+02:00</time>
      </trkpt>
      <trkpt lat="45.58311" lon="-0.98959">
        <ele>1</ele>
        <time>2024-09-15T09:23:04+02:00</time>
      </trkpt>
      <trkpt lat="45.58288" lon="-0.98965">
        <ele>2</ele>
        <time>2024-09-15T09:23:25+02:00</time>
      </trkpt>
      <trkpt lat="45.58265" lon="-0.9897">
        <ele>2</ele>
        <time>2024-09-15T09:23:45+02:00</time>
      </trkpt>
      <trkpt lat="45.58242" lon="-0.98961">
        <ele>3</ele>
        <time>2024-09-15T09:24:06+02:00</time>
      </trkpt>
      <trkpt lat="45.5822" lon="-0.98947">
        <ele>5</ele>
        <time>2024-09-15T09:24:26+02:00</time>
      </trkpt>
      <trkpt lat="45.58204" lon="-0.98921">
        <ele>8</ele>
        <time>2024-09-15T09:24:55+02:00</time>
      </trkpt>
      <trkpt lat="45.58195" lon="-0.98891">
        <ele>10</ele>
        <time>2024-09-15T09:25:29+02:00</time>
      </trkpt>
      <trkpt lat="45.5821" lon="-0.98867">
        <ele>11</ele>
        <time>2024-09-15T09:26:09+02:00</time>
      </trkpt>
      <trkpt lat="45.58188" lon="-0.98858">
        <ele>12</ele>
        <time>2024-09-15T09:26:59+02:00</time>
      </trkpt>
      <trkpt lat="45.58166" lon="-0.98864">
        <ele>12</ele>
        <time>2024-09-15T09:27:22+02:00</time>
      </trkpt>
      <trkpt lat="45.58144" lon="-0.98875">
        <ele>14</ele>
        <time>2024-09-15T09:27:44+02:00</time>
      </trkpt>
      <trkpt lat="45.58122" lon="-0.98884">
        <ele>15</ele>
        <time>2024-09-15T09:28:03+02:00</time>
      </trkpt>
      <trkpt lat="45.58102" lon="-0.989">
        <ele>16</ele>
        <time>2024-09-15T09:28:26+02:00</time>
      </trkpt>
      <trkpt lat="45.58084" lon="-0.98921">
        <ele>16</ele>
        <time>2024-09-15T09:28:48+02:00</time>
      </trkpt>
      <trkpt lat="45.58067" lon="-0.98942">
        <ele>16</ele>
        <time>2024-09-15T09:29:13+02:00</time>
      </trkpt>
      <trkpt lat="45.5805" lon="-0.98966">
        <ele>16</ele>
        <time>2024-09-15T09:29:34+02:00</time>
      </trkpt>
      <trkpt lat="45.58035" lon="-0.98989">
        <ele>15</ele>
        <time>2024-09-15T09:30:17+02:00</time>
      </trkpt>
      <trkpt lat="45.58014" lon="-0.99003">
        <ele>17</ele>
        <time>2024-09-15T09:30:37+02:00</time>
      </trkpt>
      <trkpt lat="45.57991" lon="-0.99007">
        <ele>20</ele>
        <time>2024-09-15T09:31:30+02:00</time>
      </trkpt>
      <trkpt lat="45.57969" lon="-0.99">
        <ele>23</ele>
        <time>2024-09-15T09:31:49+02:00</time>
      </trkpt>
      <trkpt lat="45.57947" lon="-0.99011">
        <ele>23</ele>
        <time>2024-09-15T09:32:08+02:00</time>
      </trkpt>
      <trkpt lat="45.57929" lon="-0.99033">
        <ele>22</ele>
        <time>2024-09-15T09:32:25+02:00</time>
      </trkpt>
      <trkpt lat="45.57913" lon="-0.99055">
        <ele>21</ele>
        <time>2024-09-15T09:32:42+02:00</time>
      </trkpt>
      <trkpt lat="45.57892" lon="-0.99072">
        <ele>21</ele>
        <time>2024-09-15T09:32:56+02:00</time>
      </trkpt>
      <trkpt lat="45.57872" lon="-0.99091">
        <ele>21</ele>
        <time>2024-09-15T09:34:32+02:00</time>
      </trkpt>
      <trkpt lat="45.57857" lon="-0.99116">
        <ele>20</ele>
        <time>2024-09-15T09:35:17+02:00</time>
      </trkpt>
      <trkpt lat="45.5784" lon="-0.99137">
        <ele>21</ele>
        <time>2024-09-15T09:36:07+02:00</time>
      </trkpt>
      <trkpt lat="45.57821" lon="-0.99157">
        <ele>21</ele>
        <time>2024-09-15T09:36:26+02:00</time>
      </trkpt>
      <trkpt lat="45.57797" lon="-0.99154">
        <ele>20</ele>
        <time>2024-09-15T09:36:46+02:00</time>
      </trkpt>
      <trkpt lat="45.57779" lon="-0.99173">
        <ele>18</ele>
        <time>2024-09-15T09:37:33+02:00</time>
      </trkpt>
      <trkpt lat="45.57776" lon="-0.99205">
        <ele>15</ele>
        <time>2024-09-15T09:37:53+02:00</time>
      </trkpt>
      <trkpt lat="45.5779" lon="-0.9923">
        <ele>13</ele>
        <time>2024-09-15T09:38:19+02:00</time>
      </trkpt>
      <trkpt lat="45.57775" lon="-0.99207">
        <ele>14</ele>
        <time>2024-09-15T09:55:19+02:00</time>
      </trkpt>
      <trkpt lat="45.57778" lon="-0.99174">
        <ele>18</ele>
        <time>2024-09-15T09:55:40+02:00</time>
      </trkpt>
      <trkpt lat="45.57765" lon="-0.99145">
        <ele>19</ele>
        <time>2024-09-15T09:56:07+02:00</time>
      </trkpt>
      <trkpt lat="45.57743" lon="-0.99138">
        <ele>17</ele>
        <time>2024-09-15T09:56:25+02:00</time>
      </trkpt>
      <trkpt lat="45.5772" lon="-0.99137">
        <ele>14</ele>
        <time>2024-09-15T09:56:45+02:00</time>
      </trkpt>
      <trkpt lat="45.577" lon="-0.99123">
        <ele>12</ele>
        <time>2024-09-15T09:57:09+02:00</time>
      </trkpt>
      <trkpt lat="45.57683" lon="-0.99101">
        <ele>11</ele>
        <time>2024-09-15T09:57:32+02:00</time>
      </trkpt>
      <trkpt lat="45.57665" lon="-0.9908">
        <ele>10</ele>
        <time>2024-09-15T09:57:56+02:00</time>
      </trkpt>
      <trkpt lat="45.57662" lon="-0.99048">
        <ele>10</ele>
        <time>2024-09-15T10:07:15+02:00</time>
      </trkpt>
      <trkpt lat="45.57661" lon="-0.99015">
        <ele>9</ele>
        <time>2024-09-15T10:08:54+02:00</time>
      </trkpt>
      <trkpt lat="45.5767" lon="-0.98986">
        <ele>10</ele>
        <time>2024-09-15T10:13:43+02:00</time>
      </trkpt>
      <trkpt lat="45.57673" lon="-0.98954">
        <ele>10</ele>
        <time>2024-09-15T10:14:36+02:00</time>
      </trkpt>
      <trkpt lat="45.57687" lon="-0.98928">
        <ele>12</ele>
        <time>2024-09-15T10:15:21+02:00</time>
      </trkpt>
      <trkpt lat="45.57695" lon="-0.98897">
        <ele>13</ele>
        <time>2024-09-15T10:15:41+02:00</time>
      </trkpt>
      <trkpt lat="45.57706" lon="-0.98868">
        <ele>16</ele>
        <time>2024-09-15T10:16:04+02:00</time>
      </trkpt>
      <trkpt lat="45.57709" lon="-0.98834">
        <ele>17</ele>
        <time>2024-09-15T10:16:26+02:00</time>
      </trkpt>
      <trkpt lat="45.577" lon="-0.98804">
        <ele>16</ele>
        <time>2024-09-15T10:16:48+02:00</time>
      </trkpt>
      <trkpt lat="45.57687" lon="-0.98778">
        <ele>13</ele>
        <time>2024-09-15T10:17:21+02:00</time>
      </trkpt>
      <trkpt lat="45.57679" lon="-0.98748">
        <ele>12</ele>
        <time>2024-09-15T10:17:41+02:00</time>
      </trkpt>
      <trkpt lat="45.5767" lon="-0.98717">
        <ele>12</ele>
        <time>2024-09-15T10:18:05+02:00</time>
      </trkpt>
      <trkpt lat="45.57661" lon="-0.98687">
        <ele>12</ele>
        <time>2024-09-15T10:18:31+02:00</time>
      </trkpt>
      <trkpt lat="45.57654" lon="-0.98656">
        <ele>13</ele>
        <time>2024-09-15T10:19:50+02:00</time>
      </trkpt>
      <trkpt lat="45.57635" lon="-0.9864">
        <ele>11</ele>
        <time>2024-09-15T10:24:34+02:00</time>
      </trkpt>
      <trkpt lat="45.5762" lon="-0.98614">
        <ele>9</ele>
        <time>2024-09-15T10:27:01+02:00</time>
      </trkpt>
      <trkpt lat="45.57623" lon="-0.98582">
        <ele>12</ele>
        <time>2024-09-15T10:27:32+02:00</time>
      </trkpt>
      <trkpt lat="45.57628" lon="-0.9855">
        <ele>11</ele>
        <time>2024-09-15T10:28:59+02:00</time>
      </trkpt>
      <trkpt lat="45.57637" lon="-0.98521">
        <ele>12</ele>
        <time>2024-09-15T10:29:33+02:00</time>
      </trkpt>
      <trkpt lat="45.57647" lon="-0.98492">
        <ele>12</ele>
        <time>2024-09-15T10:29:54+02:00</time>
      </trkpt>
      <trkpt lat="45.57667" lon="-0.98475">
        <ele>14</ele>
        <time>2024-09-15T10:30:22+02:00</time>
      </trkpt>
      <trkpt lat="45.57689" lon="-0.98463">
        <ele>18</ele>
        <time>2024-09-15T10:30:56+02:00</time>
      </trkpt>
      <trkpt lat="45.57701" lon="-0.98434">
        <ele>18</ele>
        <time>2024-09-15T10:31:15+02:00</time>
      </trkpt>
      <trkpt lat="45.57718" lon="-0.98409">
        <ele>18</ele>
        <time>2024-09-15T10:31:34+02:00</time>
      </trkpt>
      <trkpt lat="45.57725" lon="-0.98377">
        <ele>16</ele>
        <time>2024-09-15T10:31:52+02:00</time>
      </trkpt>
      <trkpt lat="45.57705" lon="-0.98362">
        <ele>13</ele>
        <time>2024-09-15T10:32:24+02:00</time>
      </trkpt>
      <trkpt lat="45.57684" lon="-0.98376">
        <ele>12</ele>
        <time>2024-09-15T10:33:16+02:00</time>
      </trkpt>
      <trkpt lat="45.57663" lon="-0.98389">
        <ele>11</ele>
        <time>2024-09-15T10:33:39+02:00</time>
      </trkpt>
      <trkpt lat="45.5765" lon="-0.98415">
        <ele>10</ele>
        <time>2024-09-15T10:34:02+02:00</time>
      </trkpt>
      <trkpt lat="45.57629" lon="-0.98401">
        <ele>7</ele>
        <time>2024-09-15T10:44:25+02:00</time>
      </trkpt>
      <trkpt lat="45.57608" lon="-0.98389">
        <ele>3</ele>
        <time>2024-09-15T10:44:45+02:00</time>
      </trkpt>
      <trkpt lat="45.57588" lon="-0.98373">
        <ele>2.1</ele>
        <time>2024-09-15T10:45:07+02:00</time>
      </trkpt>
      <trkpt lat="45.57566" lon="-0.98362">
        <ele>2</ele>
        <time>2024-09-15T10:45:25+02:00</time>
      </trkpt>
      <trkpt lat="45.57545" lon="-0.98351">
        <ele>2</ele>
        <time>2024-09-15T10:45:44+02:00</time>
      </trkpt>
      <trkpt lat="45.57522" lon="-0.98345">
        <ele>1.9</ele>
        <time>2024-09-15T10:46:03+02:00</time>
      </trkpt>
      <trkpt lat="45.575" lon="-0.98336">
        <ele>1.9</ele>
        <time>2024-09-15T10:46:22+02:00</time>
      </trkpt>
      <trkpt lat="45.57479" lon="-0.98323">
        <ele>2</ele>
        <time>2024-09-15T10:46:41+02:00</time>
      </trkpt>
      <trkpt lat="45.57457" lon="-0.98313">
        <ele>1.9</ele>
        <time>2024-09-15T10:47:01+02:00</time>
      </trkpt>
      <trkpt lat="45.57435" lon="-0.98306">
        <ele>1.7</ele>
        <time>2024-09-15T10:47:21+02:00</time>
      </trkpt>
      <trkpt lat="45.57413" lon="-0.98295">
        <ele>1.4</ele>
        <time>2024-09-15T10:47:41+02:00</time>
      </trkpt>
      <trkpt lat="45.5739" lon="-0.9829">
        <ele>1.6</ele>
        <time>2024-09-15T10:48:01+02:00</time>
      </trkpt>
      <trkpt lat="45.57369" lon="-0.98278">
        <ele>2</ele>
        <time>2024-09-15T10:48:21+02:00</time>
      </trkpt>
      <trkpt lat="45.57349" lon="-0.98261">
        <ele>1.8</ele>
        <time>2024-09-15T10:48:40+02:00</time>
      </trkpt>
      <trkpt lat="45.57329" lon="-0.98244">
        <ele>1.9</ele>
        <time>2024-09-15T10:48:59+02:00</time>
      </trkpt>
      <trkpt lat="45.57312" lon="-0.98221">
        <ele>2</ele>
        <time>2024-09-15T10:49:19+02:00</time>
      </trkpt>
      <trkpt lat="45.573" lon="-0.98192">
        <ele>1</ele>
        <time>2024-09-15T10:49:39+02:00</time>
      </trkpt>
      <trkpt lat="45.57287" lon="-0.98165">
        <ele>2</ele>
        <time>2024-09-15T10:49:59+02:00</time>
      </trkpt>
      <trkpt lat="45.57276" lon="-0.98136">
        <ele>6</ele>
        <time>2024-09-15T10:50:19+02:00</time>
      </trkpt>
      <trkpt lat="45.57282" lon="-0.98105">
        <ele>9</ele>
        <time>2024-09-15T10:50:41+02:00</time>
      </trkpt>
      <trkpt lat="45.5729" lon="-0.98071">
        <ele>13</ele>
        <time>2024-09-15T10:51:04+02:00</time>
      </trkpt>
      <trkpt lat="45.57292" lon="-0.98039">
        <ele>18</ele>
        <time>2024-09-15T10:51:34+02:00</time>
      </trkpt>
      <trkpt lat="45.57283" lon="-0.98007">
        <ele>23</ele>
        <time>2024-09-15T10:51:56+02:00</time>
      </trkpt>
      <trkpt lat="45.57271" lon="-0.97979">
        <ele>26</ele>
        <time>2024-09-15T10:52:28+02:00</time>
      </trkpt>
      <trkpt lat="45.57268" lon="-0.97946">
        <ele>28</ele>
        <time>2024-09-15T10:52:44+02:00</time>
      </trkpt>
      <trkpt lat="45.57263" lon="-0.97915">
        <ele>31</ele>
        <time>2024-09-15T10:53:08+02:00</time>
      </trkpt>
      <trkpt lat="45.57257" lon="-0.97883">
        <ele>33</ele>
        <time>2024-09-15T10:53:25+02:00</time>
      </trkpt>
      <trkpt lat="45.57241" lon="-0.9786">
        <ele>34</ele>
        <time>2024-09-15T10:53:43+02:00</time>
      </trkpt>
      <trkpt lat="45.57218" lon="-0.97862">
        <ele>33</ele>
        <time>2024-09-15T10:54:04+02:00</time>
      </trkpt>
      <trkpt lat="45.57195" lon="-0.97854">
        <ele>32</ele>
        <time>2024-09-15T10:54:23+02:00</time>
      </trkpt>
      <trkpt lat="45.57172" lon="-0.97854">
        <ele>31</ele>
        <time>2024-09-15T10:54:45+02:00</time>
      </trkpt>
      <trkpt lat="45.5718" lon="-0.97824">
        <ele>32</ele>
        <time>2024-09-15T11:03:41+02:00</time>
      </trkpt>
      <trkpt lat="45.57178" lon="-0.97792">
        <ele>31</ele>
        <time>2024-09-15T11:04:05+02:00</time>
      </trkpt>
      <trkpt lat="45.57177" lon="-0.97758">
        <ele>31</ele>
        <time>2024-09-15T11:04:26+02:00</time>
      </trkpt>
      <trkpt lat="45.57174" lon="-0.97726">
        <ele>31</ele>
        <time>2024-09-15T11:04:45+02:00</time>
      </trkpt>
      <trkpt lat="45.57154" lon="-0.97709">
        <ele>30</ele>
        <time>2024-09-15T11:05:12+02:00</time>
      </trkpt>
      <trkpt lat="45.57133" lon="-0.97697">
        <ele>28</ele>
        <time>2024-09-15T11:05:32+02:00</time>
      </trkpt>
      <trkpt lat="45.5711" lon="-0.97699">
        <ele>26</ele>
        <time>2024-09-15T11:05:51+02:00</time>
      </trkpt>
      <trkpt lat="45.571" lon="-0.97669">
        <ele>25</ele>
        <time>2024-09-15T11:06:10+02:00</time>
      </trkpt>
      <trkpt lat="45.57088" lon="-0.97643">
        <ele>23</ele>
        <time>2024-09-15T11:06:34+02:00</time>
      </trkpt>
      <trkpt lat="45.57072" lon="-0.97616">
        <ele>21</ele>
        <time>2024-09-15T11:06:53+02:00</time>
      </trkpt>
      <trkpt lat="45.57062" lon="-0.97587">
        <ele>18</ele>
        <time>2024-09-15T11:07:15+02:00</time>
      </trkpt>
      <trkpt lat="45.57057" lon="-0.97555">
        <ele>17</ele>
        <time>2024-09-15T11:07:45+02:00</time>
      </trkpt>
      <trkpt lat="45.57063" lon="-0.97524">
        <ele>19</ele>
        <time>2024-09-15T11:08:05+02:00</time>
      </trkpt>
      <trkpt lat="45.57042" lon="-0.9751">
        <ele>15</ele>
        <time>2024-09-15T11:09:56+02:00</time>
      </trkpt>
      <trkpt lat="45.57022" lon="-0.97493">
        <ele>11</ele>
        <time>2024-09-15T11:10:54+02:00</time>
      </trkpt>
      <trkpt lat="45.57011" lon="-0.97465">
        <ele>12</ele>
        <time>2024-09-15T11:16:37+02:00</time>
      </trkpt>
      <trkpt lat="45.57014" lon="-0.97433">
        <ele>15</ele>
        <time>2024-09-15T11:17:19+02:00</time>
      </trkpt>
      <trkpt lat="45.56992" lon="-0.97433">
        <ele>13</ele>
        <time>2024-09-15T11:17:46+02:00</time>
      </trkpt>
      <trkpt lat="45.56969" lon="-0.97445">
        <ele>11</ele>
        <time>2024-09-15T11:21:09+02:00</time>
      </trkpt>
      <trkpt lat="45.56947" lon="-0.97431">
        <ele>12</ele>
        <time>2024-09-15T11:21:34+02:00</time>
      </trkpt>
      <trkpt lat="45.56926" lon="-0.97417">
        <ele>13</ele>
        <time>2024-09-15T11:21:59+02:00</time>
      </trkpt>
      <trkpt lat="45.56902" lon="-0.97411">
        <ele>13</ele>
        <time>2024-09-15T11:22:30+02:00</time>
      </trkpt>
      <trkpt lat="45.56881" lon="-0.97398">
        <ele>14</ele>
        <time>2024-09-15T11:23:07+02:00</time>
      </trkpt>
      <trkpt lat="45.56859" lon="-0.97403">
        <ele>14</ele>
        <time>2024-09-15T11:23:34+02:00</time>
      </trkpt>
      <trkpt lat="45.56846" lon="-0.9743">
        <ele>11</ele>
        <time>2024-09-15T11:24:06+02:00</time>
      </trkpt>
      <trkpt lat="45.56834" lon="-0.97457">
        <ele>8</ele>
        <time>2024-09-15T11:24:31+02:00</time>
      </trkpt>
      <trkpt lat="45.56811" lon="-0.97466">
        <ele>5</ele>
        <time>2024-09-15T11:27:02+02:00</time>
      </trkpt>
      <trkpt lat="45.56796" lon="-0.97441">
        <ele>7</ele>
        <time>2024-09-15T11:27:42+02:00</time>
      </trkpt>
      <trkpt lat="45.56797" lon="-0.97409">
        <ele>10</ele>
        <time>2024-09-15T11:28:00+02:00</time>
      </trkpt>
      <trkpt lat="45.56817" lon="-0.97393">
        <ele>12</ele>
        <time>2024-09-15T11:28:31+02:00</time>
      </trkpt>
      <trkpt lat="45.5684" lon="-0.97385">
        <ele>14</ele>
        <time>2024-09-15T11:28:54+02:00</time>
      </trkpt>
      <trkpt lat="45.56856" lon="-0.97361">
        <ele>16</ele>
        <time>2024-09-15T11:29:16+02:00</time>
      </trkpt>
      <trkpt lat="45.56869" lon="-0.97334">
        <ele>17</ele>
        <time>2024-09-15T11:29:41+02:00</time>
      </trkpt>
      <trkpt lat="45.56881" lon="-0.97306">
        <ele>17</ele>
        <time>2024-09-15T11:30:28+02:00</time>
      </trkpt>
      <trkpt lat="45.56895" lon="-0.9728">
        <ele>16</ele>
        <time>2024-09-15T11:30:58+02:00</time>
      </trkpt>
      <trkpt lat="45.56914" lon="-0.97261">
        <ele>16</ele>
        <time>2024-09-15T11:31:30+02:00</time>
      </trkpt>
      <trkpt lat="45.56934" lon="-0.97246">
        <ele>16</ele>
        <time>2024-09-15T11:32:01+02:00</time>
      </trkpt>
      <trkpt lat="45.56938" lon="-0.97213">
        <ele>14</ele>
        <time>2024-09-15T11:32:22+02:00</time>
      </trkpt>
      <trkpt lat="45.56928" lon="-0.97184">
        <ele>11</ele>
        <time>2024-09-15T11:32:40+02:00</time>
      </trkpt>
      <trkpt lat="45.56916" lon="-0.97156">
        <ele>9</ele>
        <time>2024-09-15T11:32:57+02:00</time>
      </trkpt>
      <trkpt lat="45.56907" lon="-0.97126">
        <ele>9</ele>
        <time>2024-09-15T11:33:23+02:00</time>
      </trkpt>
      <trkpt lat="45.56883" lon="-0.97125">
        <ele>10</ele>
        <time>2024-09-15T11:34:12+02:00</time>
      </trkpt>
      <trkpt lat="45.5686" lon="-0.97136">
        <ele>10</ele>
        <time>2024-09-15T11:34:37+02:00</time>
      </trkpt>
      <trkpt lat="45.5684" lon="-0.97152">
        <ele>10</ele>
        <time>2024-09-15T11:34:59+02:00</time>
      </trkpt>
      <trkpt lat="45.56832" lon="-0.97181">
        <ele>11</ele>
        <time>2024-09-15T11:35:22+02:00</time>
      </trkpt>
      <trkpt lat="45.56826" lon="-0.97213">
        <ele>12</ele>
        <time>2024-09-15T11:35:41+02:00</time>
      </trkpt>
      <trkpt lat="45.56822" lon="-0.97245">
        <ele>13</ele>
        <time>2024-09-15T11:36:02+02:00</time>
      </trkpt>
      <trkpt lat="45.56812" lon="-0.97277">
        <ele>13</ele>
        <time>2024-09-15T11:36:26+02:00</time>
      </trkpt>
      <trkpt lat="45.56792" lon="-0.97292">
        <ele>11</ele>
        <time>2024-09-15T11:36:49+02:00</time>
      </trkpt>
      <trkpt lat="45.56768" lon="-0.97295">
        <ele>9</ele>
        <time>2024-09-15T11:37:10+02:00</time>
      </trkpt>
      <trkpt lat="45.56746" lon="-0.9729">
        <ele>7</ele>
        <time>2024-09-15T11:37:31+02:00</time>
      </trkpt>
      <trkpt lat="45.56723" lon="-0.97286">
        <ele>5</ele>
        <time>2024-09-15T11:37:50+02:00</time>
      </trkpt>
      <trkpt lat="45.56701" lon="-0.97278">
        <ele>3</ele>
        <time>2024-09-15T11:38:12+02:00</time>
      </trkpt>
      <trkpt lat="45.56678" lon="-0.97273">
        <ele>1</ele>
        <time>2024-09-15T11:38:33+02:00</time>
      </trkpt>
      <trkpt lat="45.56655" lon="-0.97267">
        <ele>2.4</ele>
        <time>2024-09-15T11:38:54+02:00</time>
      </trkpt>
      <trkpt lat="45.56633" lon="-0.97264">
        <ele>2.5</ele>
        <time>2024-09-15T11:39:15+02:00</time>
      </trkpt>
      <trkpt lat="45.5661" lon="-0.97259">
        <ele>2.7</ele>
        <time>2024-09-15T11:39:37+02:00</time>
      </trkpt>
      <trkpt lat="45.56587" lon="-0.97255">
        <ele>2.1</ele>
        <time>2024-09-15T11:40:02+02:00</time>
      </trkpt>
      <trkpt lat="45.56564" lon="-0.97251">
        <ele>2</ele>
        <time>2024-09-15T11:40:22+02:00</time>
      </trkpt>
      <trkpt lat="45.5654" lon="-0.97249">
        <ele>2.1</ele>
        <time>2024-09-15T11:40:43+02:00</time>
      </trkpt>
      <trkpt lat="45.56518" lon="-0.97247">
        <ele>2.1</ele>
        <time>2024-09-15T11:41:03+02:00</time>
      </trkpt>
      <trkpt lat="45.56495" lon="-0.97247">
        <ele>1</ele>
        <time>2024-09-15T11:41:24+02:00</time>
      </trkpt>
      <trkpt lat="45.56472" lon="-0.97243">
        <ele>2</ele>
        <time>2024-09-15T11:41:45+02:00</time>
      </trkpt>
      <trkpt lat="45.56449" lon="-0.97238">
        <ele>4</ele>
        <time>2024-09-15T11:42:07+02:00</time>
      </trkpt>
      <trkpt lat="45.56426" lon="-0.97232">
        <ele>6</ele>
        <time>2024-09-15T11:42:29+02:00</time>
      </trkpt>
      <trkpt lat="45.56404" lon="-0.97224">
        <ele>6</ele>
        <time>2024-09-15T11:42:53+02:00</time>
      </trkpt>
      <trkpt lat="45.56428" lon="-0.97228">
        <ele>6</ele>
        <time>2024-09-15T11:48:41+02:00</time>
      </trkpt>
      <trkpt lat="45.56448" lon="-0.97213">
        <ele>6</ele>
        <time>2024-09-15T11:49:05+02:00</time>
      </trkpt>
      <trkpt lat="45.56461" lon="-0.97185">
        <ele>7</ele>
        <time>2024-09-15T11:49:29+02:00</time>
      </trkpt>
      <trkpt lat="45.56466" lon="-0.97153">
        <ele>10</ele>
        <time>2024-09-15T11:49:54+02:00</time>
      </trkpt>
      <trkpt lat="45.56478" lon="-0.97125">
        <ele>12</ele>
        <time>2024-09-15T11:50:17+02:00</time>
      </trkpt>
      <trkpt lat="45.56487" lon="-0.97094">
        <ele>14</ele>
        <time>2024-09-15T11:50:38+02:00</time>
      </trkpt>
      <trkpt lat="45.56491" lon="-0.97061">
        <ele>16</ele>
        <time>2024-09-15T11:50:59+02:00</time>
      </trkpt>
      <trkpt lat="45.56493" lon="-0.97028">
        <ele>17</ele>
        <time>2024-09-15T11:51:21+02:00</time>
      </trkpt>
      <trkpt lat="45.56482" lon="-0.96999">
        <ele>19</ele>
        <time>2024-09-15T11:51:45+02:00</time>
      </trkpt>
      <trkpt lat="45.56469" lon="-0.96973">
        <ele>21</ele>
        <time>2024-09-15T11:53:57+02:00</time>
      </trkpt>
      <trkpt lat="45.56451" lon="-0.96952">
        <ele>23</ele>
        <time>2024-09-15T11:54:24+02:00</time>
      </trkpt>
      <trkpt lat="45.56428" lon="-0.96955">
        <ele>25</ele>
        <time>2024-09-15T11:54:58+02:00</time>
      </trkpt>
      <trkpt lat="45.56405" lon="-0.96953">
        <ele>27</ele>
        <time>2024-09-15T11:55:28+02:00</time>
      </trkpt>
      <trkpt lat="45.56381" lon="-0.96954">
        <ele>28</ele>
        <time>2024-09-15T11:55:54+02:00</time>
      </trkpt>
      <trkpt lat="45.56359" lon="-0.96949">
        <ele>29</ele>
        <time>2024-09-15T11:56:17+02:00</time>
      </trkpt>
      <trkpt lat="45.56338" lon="-0.96938">
        <ele>30</ele>
        <time>2024-09-15T11:56:39+02:00</time>
      </trkpt>
      <trkpt lat="45.5632" lon="-0.96918">
        <ele>31</ele>
        <time>2024-09-15T11:57:01+02:00</time>
      </trkpt>
      <trkpt lat="45.563" lon="-0.96901">
        <ele>30</ele>
        <time>2024-09-15T11:57:27+02:00</time>
      </trkpt>
      <trkpt lat="45.56282" lon="-0.96879">
        <ele>29</ele>
        <time>2024-09-15T11:57:46+02:00</time>
      </trkpt>
      <trkpt lat="45.56265" lon="-0.96859">
        <ele>28</ele>
        <time>2024-09-15T11:58:08+02:00</time>
      </trkpt>
      <trkpt lat="45.56253" lon="-0.96832">
        <ele>27</ele>
        <time>2024-09-15T11:58:31+02:00</time>
      </trkpt>
      <trkpt lat="45.56251" lon="-0.96798">
        <ele>27</ele>
        <time>2024-09-15T11:59:31+02:00</time>
      </trkpt>
      <trkpt lat="45.56245" lon="-0.96764">
        <ele>27</ele>
        <time>2024-09-15T11:59:58+02:00</time>
      </trkpt>
      <trkpt lat="45.56239" lon="-0.96731">
        <ele>27</ele>
        <time>2024-09-15T12:00:13+02:00</time>
      </trkpt>
      <trkpt lat="45.5623" lon="-0.96701">
        <ele>26</ele>
        <time>2024-09-15T12:00:28+02:00</time>
      </trkpt>
      <trkpt lat="45.56226" lon="-0.96669">
        <ele>26</ele>
        <time>2024-09-15T12:00:50+02:00</time>
      </trkpt>
      <trkpt lat="45.56217" lon="-0.96638">
        <ele>26</ele>
        <time>2024-09-15T12:01:09+02:00</time>
      </trkpt>
      <trkpt lat="45.56212" lon="-0.96604">
        <ele>26</ele>
        <time>2024-09-15T12:01:28+02:00</time>
      </trkpt>
      <trkpt lat="45.56214" lon="-0.96573">
        <ele>27</ele>
        <time>2024-09-15T12:01:48+02:00</time>
      </trkpt>
      <trkpt lat="45.56193" lon="-0.96585">
        <ele>26</ele>
        <time>2024-09-15T12:02:26+02:00</time>
      </trkpt>
      <trkpt lat="45.56173" lon="-0.96603">
        <ele>24</ele>
        <time>2024-09-15T12:03:00+02:00</time>
      </trkpt>
      <trkpt lat="45.56154" lon="-0.96622">
        <ele>20</ele>
        <time>2024-09-15T12:03:42+02:00</time>
      </trkpt>
      <trkpt lat="45.56132" lon="-0.96615">
        <ele>16</ele>
        <time>2024-09-15T12:07:25+02:00</time>
      </trkpt>
      <trkpt lat="45.56112" lon="-0.966">
        <ele>14</ele>
        <time>2024-09-15T12:07:54+02:00</time>
      </trkpt>
      <trkpt lat="45.56101" lon="-0.96569">
        <ele>15</ele>
        <time>2024-09-15T12:08:14+02:00</time>
      </trkpt>
      <trkpt lat="45.56092" lon="-0.96538">
        <ele>16</ele>
        <time>2024-09-15T12:08:32+02:00</time>
      </trkpt>
      <trkpt lat="45.56076" lon="-0.96513">
        <ele>16</ele>
        <time>2024-09-15T12:08:51+02:00</time>
      </trkpt>
      <trkpt lat="45.5606" lon="-0.9649">
        <ele>17</ele>
        <time>2024-09-15T12:09:09+02:00</time>
      </trkpt>
      <trkpt lat="45.56038" lon="-0.9648">
        <ele>16</ele>
        <time>2024-09-15T12:09:27+02:00</time>
      </trkpt>
      <trkpt lat="45.56019" lon="-0.96462">
        <ele>17</ele>
        <time>2024-09-15T12:09:48+02:00</time>
      </trkpt>
      <trkpt lat="45.56012" lon="-0.96431">
        <ele>21</ele>
        <time>2024-09-15T12:10:07+02:00</time>
      </trkpt>
      <trkpt lat="45.56017" lon="-0.96397">
        <ele>25</ele>
        <time>2024-09-15T12:10:26+02:00</time>
      </trkpt>
      <trkpt lat="45.55998" lon="-0.96377">
        <ele>26</ele>
        <time>2024-09-15T12:12:15+02:00</time>
      </trkpt>
      <trkpt lat="45.55976" lon="-0.96374">
        <ele>25</ele>
        <time>2024-09-15T12:12:35+02:00</time>
      </trkpt>
      <trkpt lat="45.55961" lon="-0.96399">
        <ele>22</ele>
        <time>2024-09-15T12:12:57+02:00</time>
      </trkpt>
      <trkpt lat="45.55944" lon="-0.9642">
        <ele>20</ele>
        <time>2024-09-15T12:13:17+02:00</time>
      </trkpt>
      <trkpt lat="45.55922" lon="-0.96431">
        <ele>17</ele>
        <time>2024-09-15T12:13:36+02:00</time>
      </trkpt>
      <trkpt lat="45.55911" lon="-0.96403">
        <ele>20</ele>
        <time>2024-09-15T12:14:03+02:00</time>
      </trkpt>
      <trkpt lat="45.55905" lon="-0.96372">
        <ele>23</ele>
        <time>2024-09-15T12:14:30+02:00</time>
      </trkpt>
      <trkpt lat="45.55892" lon="-0.96344">
        <ele>25</ele>
        <time>2024-09-15T12:14:54+02:00</time>
      </trkpt>
      <trkpt lat="45.55879" lon="-0.96318">
        <ele>25</ele>
        <time>2024-09-15T12:15:19+02:00</time>
      </trkpt>
      <trkpt lat="45.55871" lon="-0.96287">
        <ele>25</ele>
        <time>2024-09-15T12:15:43+02:00</time>
      </trkpt>
      <trkpt lat="45.55854" lon="-0.96265">
        <ele>24</ele>
        <time>2024-09-15T12:16:03+02:00</time>
      </trkpt>
      <trkpt lat="45.55835" lon="-0.96248">
        <ele>23</ele>
        <time>2024-09-15T12:16:22+02:00</time>
      </trkpt>
      <trkpt lat="45.55813" lon="-0.96234">
        <ele>23</ele>
        <time>2024-09-15T12:16:41+02:00</time>
      </trkpt>
      <trkpt lat="45.55796" lon="-0.96211">
        <ele>23</ele>
        <time>2024-09-15T12:17:02+02:00</time>
      </trkpt>
      <trkpt lat="45.55785" lon="-0.96183">
        <ele>25</ele>
        <time>2024-09-15T12:17:21+02:00</time>
      </trkpt>
      <trkpt lat="45.55774" lon="-0.96154">
        <ele>25</ele>
        <time>2024-09-15T12:17:41+02:00</time>
      </trkpt>
      <trkpt lat="45.55762" lon="-0.96125">
        <ele>25</ele>
        <time>2024-09-15T12:18:00+02:00</time>
      </trkpt>
      <trkpt lat="45.55751" lon="-0.96097">
        <ele>25</ele>
        <time>2024-09-15T12:18:19+02:00</time>
      </trkpt>
      <trkpt lat="45.55744" lon="-0.96065">
        <ele>25</ele>
        <time>2024-09-15T12:18:40+02:00</time>
      </trkpt>
      <trkpt lat="45.55734" lon="-0.96036">
        <ele>24</ele>
        <time>2024-09-15T12:19:00+02:00</time>
      </trkpt>
      <trkpt lat="45.55722" lon="-0.96007">
        <ele>24</ele>
        <time>2024-09-15T12:19:33+02:00</time>
      </trkpt>
      <trkpt lat="45.55711" lon="-0.95978">
        <ele>23</ele>
        <time>2024-09-15T12:19:50+02:00</time>
      </trkpt>
      <trkpt lat="45.55701" lon="-0.95949">
        <ele>22</ele>
        <time>2024-09-15T12:20:10+02:00</time>
      </trkpt>
      <trkpt lat="45.55681" lon="-0.95931">
        <ele>21</ele>
        <time>2024-09-15T12:20:31+02:00</time>
      </trkpt>
      <trkpt lat="45.55659" lon="-0.95928">
        <ele>19</ele>
        <time>2024-09-15T12:20:53+02:00</time>
      </trkpt>
      <trkpt lat="45.55642" lon="-0.95904">
        <ele>18</ele>
        <time>2024-09-15T12:21:12+02:00</time>
      </trkpt>
      <trkpt lat="45.55633" lon="-0.95873">
        <ele>18</ele>
        <time>2024-09-15T12:21:32+02:00</time>
      </trkpt>
      <trkpt lat="45.55612" lon="-0.95858">
        <ele>16</ele>
        <time>2024-09-15T12:22:04+02:00</time>
      </trkpt>
      <trkpt lat="45.55591" lon="-0.95871">
        <ele>13</ele>
        <time>2024-09-15T13:09:57+02:00</time>
      </trkpt>
      <trkpt lat="45.55594" lon="-0.95839">
        <ele>15</ele>
        <time>2024-09-15T13:36:39+02:00</time>
      </trkpt>
      <trkpt lat="45.55583" lon="-0.95811">
        <ele>15</ele>
        <time>2024-09-15T13:37:08+02:00</time>
      </trkpt>
      <trkpt lat="45.55568" lon="-0.95786">
        <ele>15</ele>
        <time>2024-09-15T13:41:13+02:00</time>
      </trkpt>
      <trkpt lat="45.55572" lon="-0.95749">
        <ele>18</ele>
        <time>2024-09-15T13:43:16+02:00</time>
      </trkpt>
      <trkpt lat="45.55567" lon="-0.95758">
        <ele>17</ele>
        <time>2024-09-15T13:43:27+02:00</time>
      </trkpt>
      <trkpt lat="45.55571" lon="-0.9579">
        <ele>15</ele>
        <time>2024-09-15T13:44:06+02:00</time>
      </trkpt>
      <trkpt lat="45.55553" lon="-0.95768">
        <ele>15</ele>
        <time>2024-09-15T13:45:11+02:00</time>
      </trkpt>
      <trkpt lat="45.55554" lon="-0.95767">
        <ele>15</ele>
        <time>2024-09-15T13:45:20+02:00</time>
      </trkpt>
      <trkpt lat="45.55588" lon="-0.95761">
        <ele>18</ele>
        <time>2024-09-15T14:02:08+02:00</time>
      </trkpt>
      <trkpt lat="45.55551" lon="-0.95777">
        <ele>14</ele>
        <time>2024-09-15T14:02:09+02:00</time>
      </trkpt>
      <trkpt lat="45.55586" lon="-0.95757">
        <ele>19</ele>
        <time>2024-09-15T14:02:35+02:00</time>
      </trkpt>
      <trkpt lat="45.55586" lon="-0.95757">
        <ele>19</ele>
        <time>2024-09-15T14:02:35+02:00</time>
      </trkpt>
      <trkpt lat="45.55567" lon="-0.95772">
        <ele>16</ele>
        <time>2024-09-15T14:02:41+02:00</time>
      </trkpt>
      <trkpt lat="45.55568" lon="-0.95788">
        <ele>15</ele>
        <time>2024-09-15T15:08:45+02:00</time>
      </trkpt>
      <trkpt lat="45.55582" lon="-0.95815">
        <ele>15</ele>
        <time>2024-09-15T15:11:17+02:00</time>
      </trkpt>
      <trkpt lat="45.55595" lon="-0.95842">
        <ele>15</ele>
        <time>2024-09-15T15:18:27+02:00</time>
      </trkpt>
      <trkpt lat="45.55616" lon="-0.95857">
        <ele>17</ele>
        <time>2024-09-15T15:18:55+02:00</time>
      </trkpt>
      <trkpt lat="45.55633" lon="-0.95881">
        <ele>18</ele>
        <time>2024-09-15T15:19:23+02:00</time>
      </trkpt>
      <trkpt lat="45.55644" lon="-0.95912">
        <ele>18</ele>
        <time>2024-09-15T15:19:47+02:00</time>
      </trkpt>
      <trkpt lat="45.55663" lon="-0.9593">
        <ele>20</ele>
        <time>2024-09-15T15:20:08+02:00</time>
      </trkpt>
      <trkpt lat="45.55686" lon="-0.9593">
        <ele>22</ele>
        <time>2024-09-15T15:20:29+02:00</time>
      </trkpt>
      <trkpt lat="45.55704" lon="-0.9595">
        <ele>22</ele>
        <time>2024-09-15T15:21:03+02:00</time>
      </trkpt>
      <trkpt lat="45.5571" lon="-0.95982">
        <ele>23</ele>
        <time>2024-09-15T15:21:56+02:00</time>
      </trkpt>
      <trkpt lat="45.55722" lon="-0.9601">
        <ele>24</ele>
        <time>2024-09-15T15:22:22+02:00</time>
      </trkpt>
      <trkpt lat="45.55732" lon="-0.96041">
        <ele>24</ele>
        <time>2024-09-15T15:22:49+02:00</time>
      </trkpt>
      <trkpt lat="45.55743" lon="-0.96071">
        <ele>24</ele>
        <time>2024-09-15T15:23:12+02:00</time>
      </trkpt>
      <trkpt lat="45.55751" lon="-0.96103">
        <ele>25</ele>
        <time>2024-09-15T15:23:35+02:00</time>
      </trkpt>
      <trkpt lat="45.55761" lon="-0.96132">
        <ele>25</ele>
        <time>2024-09-15T15:23:56+02:00</time>
      </trkpt>
      <trkpt lat="45.55771" lon="-0.96162">
        <ele>25</ele>
        <time>2024-09-15T15:24:17+02:00</time>
      </trkpt>
      <trkpt lat="45.55784" lon="-0.9619">
        <ele>24</ele>
        <time>2024-09-15T15:24:38+02:00</time>
      </trkpt>
      <trkpt lat="45.55796" lon="-0.96217">
        <ele>23</ele>
        <time>2024-09-15T15:25:00+02:00</time>
      </trkpt>
      <trkpt lat="45.55814" lon="-0.96238">
        <ele>22</ele>
        <time>2024-09-15T15:25:20+02:00</time>
      </trkpt>
      <trkpt lat="45.55834" lon="-0.96254">
        <ele>23</ele>
        <time>2024-09-15T15:25:40+02:00</time>
      </trkpt>
      <trkpt lat="45.55854" lon="-0.96271">
        <ele>24</ele>
        <time>2024-09-15T15:26:00+02:00</time>
      </trkpt>
      <trkpt lat="45.5587" lon="-0.96296">
        <ele>24</ele>
        <time>2024-09-15T15:26:24+02:00</time>
      </trkpt>
      <trkpt lat="45.55878" lon="-0.96327">
        <ele>24</ele>
        <time>2024-09-15T15:26:45+02:00</time>
      </trkpt>
      <trkpt lat="45.55896" lon="-0.96348">
        <ele>25</ele>
        <time>2024-09-15T15:27:12+02:00</time>
      </trkpt>
      <trkpt lat="45.55903" lon="-0.9638">
        <ele>22</ele>
        <time>2024-09-15T15:27:31+02:00</time>
      </trkpt>
      <trkpt lat="45.55912" lon="-0.96409">
        <ele>19</ele>
        <time>2024-09-15T15:27:49+02:00</time>
      </trkpt>
      <trkpt lat="45.55927" lon="-0.96435">
        <ele>17</ele>
        <time>2024-09-15T15:28:12+02:00</time>
      </trkpt>
      <trkpt lat="45.55949" lon="-0.9642">
        <ele>20</ele>
        <time>2024-09-15T15:28:34+02:00</time>
      </trkpt>
      <trkpt lat="45.55968" lon="-0.96402">
        <ele>22</ele>
        <time>2024-09-15T15:28:54+02:00</time>
      </trkpt>
      <trkpt lat="45.55979" lon="-0.96374">
        <ele>26</ele>
        <time>2024-09-15T15:29:14+02:00</time>
      </trkpt>
      <trkpt lat="45.56002" lon="-0.96384">
        <ele>25</ele>
        <time>2024-09-15T15:29:31+02:00</time>
      </trkpt>
      <trkpt lat="45.56018" lon="-0.96408">
        <ele>24</ele>
        <time>2024-09-15T15:29:55+02:00</time>
      </trkpt>
      <trkpt lat="45.56037" lon="-0.96427">
        <ele>23</ele>
        <time>2024-09-15T15:30:31+02:00</time>
      </trkpt>
      <trkpt lat="45.5606" lon="-0.96429">
        <ele>25</ele>
        <time>2024-09-15T15:30:58+02:00</time>
      </trkpt>
      <trkpt lat="45.56082" lon="-0.96424">
        <ele>27</ele>
        <time>2024-09-15T15:31:30+02:00</time>
      </trkpt>
      <trkpt lat="45.56104" lon="-0.96418">
        <ele>29</ele>
        <time>2024-09-15T15:31:57+02:00</time>
      </trkpt>
      <trkpt lat="45.56118" lon="-0.96444">
        <ele>28</ele>
        <time>2024-09-15T15:32:23+02:00</time>
      </trkpt>
      <trkpt lat="45.56131" lon="-0.9647">
        <ele>27</ele>
        <time>2024-09-15T15:32:47+02:00</time>
      </trkpt>
      <trkpt lat="45.56144" lon="-0.96497">
        <ele>28</ele>
        <time>2024-09-15T15:33:09+02:00</time>
      </trkpt>
      <trkpt lat="45.56164" lon="-0.96514">
        <ele>30</ele>
        <time>2024-09-15T15:33:35+02:00</time>
      </trkpt>
      <trkpt lat="45.56181" lon="-0.96537">
        <ele>28</ele>
        <time>2024-09-15T15:33:53+02:00</time>
      </trkpt>
      <trkpt lat="45.562" lon="-0.96555">
        <ele>28</ele>
        <time>2024-09-15T15:34:14+02:00</time>
      </trkpt>
      <trkpt lat="45.56216" lon="-0.96578">
        <ele>27</ele>
        <time>2024-09-15T15:34:37+02:00</time>
      </trkpt>
      <trkpt lat="45.56212" lon="-0.9661">
        <ele>26</ele>
        <time>2024-09-15T15:34:58+02:00</time>
      </trkpt>
      <trkpt lat="45.56216" lon="-0.96642">
        <ele>26</ele>
        <time>2024-09-15T15:35:17+02:00</time>
      </trkpt>
      <trkpt lat="45.56222" lon="-0.96673">
        <ele>25</ele>
        <time>2024-09-15T15:35:37+02:00</time>
      </trkpt>
      <trkpt lat="45.5623" lon="-0.96704">
        <ele>26</ele>
        <time>2024-09-15T15:36:00+02:00</time>
      </trkpt>
      <trkpt lat="45.56236" lon="-0.96737">
        <ele>26</ele>
        <time>2024-09-15T15:36:22+02:00</time>
      </trkpt>
      <trkpt lat="45.56246" lon="-0.96766">
        <ele>27</ele>
        <time>2024-09-15T15:36:40+02:00</time>
      </trkpt>
      <trkpt lat="45.56251" lon="-0.96797">
        <ele>27</ele>
        <time>2024-09-15T15:36:59+02:00</time>
      </trkpt>
      <trkpt lat="45.56251" lon="-0.96829">
        <ele>27</ele>
        <time>2024-09-15T15:37:23+02:00</time>
      </trkpt>
      <trkpt lat="45.56263" lon="-0.96857">
        <ele>28</ele>
        <time>2024-09-15T15:37:50+02:00</time>
      </trkpt>
      <trkpt lat="45.56282" lon="-0.96879">
        <ele>29</ele>
        <time>2024-09-15T15:38:10+02:00</time>
      </trkpt>
      <trkpt lat="45.56299" lon="-0.96901">
        <ele>30</ele>
        <time>2024-09-15T15:38:32+02:00</time>
      </trkpt>
      <trkpt lat="45.56316" lon="-0.96921">
        <ele>30</ele>
        <time>2024-09-15T15:38:54+02:00</time>
      </trkpt>
      <trkpt lat="45.56336" lon="-0.96937">
        <ele>30</ele>
        <time>2024-09-15T15:39:11+02:00</time>
      </trkpt>
      <trkpt lat="45.56356" lon="-0.96952">
        <ele>29</ele>
        <time>2024-09-15T15:39:33+02:00</time>
      </trkpt>
      <trkpt lat="45.5638" lon="-0.96955">
        <ele>28</ele>
        <time>2024-09-15T15:39:53+02:00</time>
      </trkpt>
      <trkpt lat="45.56404" lon="-0.96952">
        <ele>27</ele>
        <time>2024-09-15T15:40:12+02:00</time>
      </trkpt>
      <trkpt lat="45.56428" lon="-0.96951">
        <ele>25</ele>
        <time>2024-09-15T15:40:35+02:00</time>
      </trkpt>
      <trkpt lat="45.56451" lon="-0.96955">
        <ele>23</ele>
        <time>2024-09-15T15:40:53+02:00</time>
      </trkpt>
      <trkpt lat="45.56468" lon="-0.96977">
        <ele>21</ele>
        <time>2024-09-15T15:41:10+02:00</time>
      </trkpt>
      <trkpt lat="45.5648" lon="-0.97005">
        <ele>19</ele>
        <time>2024-09-15T15:41:28+02:00</time>
      </trkpt>
      <trkpt lat="45.56486" lon="-0.97038">
        <ele>17</ele>
        <time>2024-09-15T15:41:51+02:00</time>
      </trkpt>
      <trkpt lat="45.56487" lon="-0.97071">
        <ele>16</ele>
        <time>2024-09-15T15:42:09+02:00</time>
      </trkpt>
      <trkpt lat="45.56482" lon="-0.97102">
        <ele>14</ele>
        <time>2024-09-15T15:42:30+02:00</time>
      </trkpt>
      <trkpt lat="45.5647" lon="-0.97131">
        <ele>12</ele>
        <time>2024-09-15T15:43:00+02:00</time>
      </trkpt>
      <trkpt lat="45.56475" lon="-0.97162">
        <ele>9</ele>
        <time>2024-09-15T15:43:49+02:00</time>
      </trkpt>
      <trkpt lat="45.56497" lon="-0.97156">
        <ele>8</ele>
        <time>2024-09-15T15:44:13+02:00</time>
      </trkpt>
      <trkpt lat="45.56521" lon="-0.9716">
        <ele>8</ele>
        <time>2024-09-15T15:44:36+02:00</time>
      </trkpt>
      <trkpt lat="45.56543" lon="-0.97164">
        <ele>9</ele>
        <time>2024-09-15T15:44:58+02:00</time>
      </trkpt>
      <trkpt lat="45.56566" lon="-0.97171">
        <ele>9</ele>
        <time>2024-09-15T15:45:24+02:00</time>
      </trkpt>
      <trkpt lat="45.56589" lon="-0.97179">
        <ele>9</ele>
        <time>2024-09-15T15:45:47+02:00</time>
      </trkpt>
      <trkpt lat="45.56612" lon="-0.97178">
        <ele>9</ele>
        <time>2024-09-15T15:46:39+02:00</time>
      </trkpt>
      <trkpt lat="45.56618" lon="-0.97209">
        <ele>5</ele>
        <time>2024-09-15T15:47:03+02:00</time>
      </trkpt>
      <trkpt lat="45.56637" lon="-0.97227">
        <ele>3</ele>
        <time>2024-09-15T15:47:25+02:00</time>
      </trkpt>
      <trkpt lat="45.56659" lon="-0.97238">
        <ele>2</ele>
        <time>2024-09-15T15:47:46+02:00</time>
      </trkpt>
      <trkpt lat="45.5668" lon="-0.97246">
        <ele>2</ele>
        <time>2024-09-15T15:48:04+02:00</time>
      </trkpt>
      <trkpt lat="45.56703" lon="-0.97255">
        <ele>3</ele>
        <time>2024-09-15T15:48:23+02:00</time>
      </trkpt>
      <trkpt lat="45.56726" lon="-0.9726">
        <ele>5</ele>
        <time>2024-09-15T15:48:43+02:00</time>
      </trkpt>
      <trkpt lat="45.56748" lon="-0.97267">
        <ele>7</ele>
        <time>2024-09-15T15:49:04+02:00</time>
      </trkpt>
      <trkpt lat="45.5677" lon="-0.97279">
        <ele>9</ele>
        <time>2024-09-15T15:49:26+02:00</time>
      </trkpt>
      <trkpt lat="45.56793" lon="-0.9729">
        <ele>11</ele>
        <time>2024-09-15T15:50:55+02:00</time>
      </trkpt>
      <trkpt lat="45.56813" lon="-0.97274">
        <ele>13</ele>
        <time>2024-09-15T15:51:14+02:00</time>
      </trkpt>
      <trkpt lat="45.56821" lon="-0.97243">
        <ele>13</ele>
        <time>2024-09-15T15:51:37+02:00</time>
      </trkpt>
      <trkpt lat="45.56828" lon="-0.97212">
        <ele>12</ele>
        <time>2024-09-15T15:51:52+02:00</time>
      </trkpt>
      <trkpt lat="45.56831" lon="-0.97179">
        <ele>11</ele>
        <time>2024-09-15T15:52:10+02:00</time>
      </trkpt>
      <trkpt lat="45.56842" lon="-0.97149">
        <ele>10</ele>
        <time>2024-09-15T15:52:30+02:00</time>
      </trkpt>
      <trkpt lat="45.56862" lon="-0.97132">
        <ele>10</ele>
        <time>2024-09-15T15:52:52+02:00</time>
      </trkpt>
      <trkpt lat="45.56885" lon="-0.97128">
        <ele>9</ele>
        <time>2024-09-15T15:53:12+02:00</time>
      </trkpt>
      <trkpt lat="45.56907" lon="-0.97142">
        <ele>9</ele>
        <time>2024-09-15T15:53:39+02:00</time>
      </trkpt>
      <trkpt lat="45.56919" lon="-0.9717">
        <ele>9</ele>
        <time>2024-09-15T15:53:57+02:00</time>
      </trkpt>
      <trkpt lat="45.56928" lon="-0.97199">
        <ele>12</ele>
        <time>2024-09-15T15:54:17+02:00</time>
      </trkpt>
      <trkpt lat="45.56939" lon="-0.97228">
        <ele>15</ele>
        <time>2024-09-15T15:54:37+02:00</time>
      </trkpt>
      <trkpt lat="45.56921" lon="-0.9725">
        <ele>16</ele>
        <time>2024-09-15T15:59:29+02:00</time>
      </trkpt>
      <trkpt lat="45.56902" lon="-0.97268">
        <ele>16</ele>
        <time>2024-09-15T16:00:02+02:00</time>
      </trkpt>
      <trkpt lat="45.56887" lon="-0.97294">
        <ele>17</ele>
        <time>2024-09-15T16:00:28+02:00</time>
      </trkpt>
      <trkpt lat="45.56873" lon="-0.9732">
        <ele>17</ele>
        <time>2024-09-15T16:00:52+02:00</time>
      </trkpt>
      <trkpt lat="45.56862" lon="-0.97349">
        <ele>16</ele>
        <time>2024-09-15T16:01:37+02:00</time>
      </trkpt>
      <trkpt lat="45.56849" lon="-0.97377">
        <ele>15</ele>
        <time>2024-09-15T16:02:05+02:00</time>
      </trkpt>
      <trkpt lat="45.56828" lon="-0.9739">
        <ele>13</ele>
        <time>2024-09-15T16:02:42+02:00</time>
      </trkpt>
      <trkpt lat="45.56806" lon="-0.97398">
        <ele>11</ele>
        <time>2024-09-15T16:03:16+02:00</time>
      </trkpt>
      <trkpt lat="45.568" lon="-0.9743">
        <ele>8</ele>
        <time>2024-09-15T16:03:43+02:00</time>
      </trkpt>
      <trkpt lat="45.56809" lon="-0.9746">
        <ele>6</ele>
        <time>2024-09-15T16:04:08+02:00</time>
      </trkpt>
      <trkpt lat="45.56828" lon="-0.97477">
        <ele>5</ele>
        <time>2024-09-15T16:04:44+02:00</time>
      </trkpt>
      <trkpt lat="45.56839" lon="-0.97449">
        <ele>9</ele>
        <time>2024-09-15T16:05:19+02:00</time>
      </trkpt>
      <trkpt lat="45.5685" lon="-0.97419">
        <ele>13</ele>
        <time>2024-09-15T16:05:52+02:00</time>
      </trkpt>
      <trkpt lat="45.56867" lon="-0.97398">
        <ele>14</ele>
        <time>2024-09-15T16:06:24+02:00</time>
      </trkpt>
      <trkpt lat="45.56891" lon="-0.97402">
        <ele>14</ele>
        <time>2024-09-15T16:06:53+02:00</time>
      </trkpt>
      <trkpt lat="45.56912" lon="-0.97417">
        <ele>13</ele>
        <time>2024-09-15T16:07:35+02:00</time>
      </trkpt>
      <trkpt lat="45.56935" lon="-0.9742">
        <ele>13</ele>
        <time>2024-09-15T16:08:06+02:00</time>
      </trkpt>
      <trkpt lat="45.56956" lon="-0.97433">
        <ele>12</ele>
        <time>2024-09-15T16:08:34+02:00</time>
      </trkpt>
      <trkpt lat="45.56977" lon="-0.97447">
        <ele>11</ele>
        <time>2024-09-15T16:08:59+02:00</time>
      </trkpt>
      <trkpt lat="45.56998" lon="-0.97438">
        <ele>13</ele>
        <time>2024-09-15T16:09:33+02:00</time>
      </trkpt>
      <trkpt lat="45.57019" lon="-0.97452">
        <ele>14</ele>
        <time>2024-09-15T16:10:31+02:00</time>
      </trkpt>
      <trkpt lat="45.57027" lon="-0.97483">
        <ele>13</ele>
        <time>2024-09-15T16:14:45+02:00</time>
      </trkpt>
      <trkpt lat="45.5704" lon="-0.97509">
        <ele>14</ele>
        <time>2024-09-15T16:15:17+02:00</time>
      </trkpt>
      <trkpt lat="45.57062" lon="-0.97517">
        <ele>19</ele>
        <time>2024-09-15T16:16:21+02:00</time>
      </trkpt>
      <trkpt lat="45.57055" lon="-0.97548">
        <ele>17</ele>
        <time>2024-09-15T16:26:06+02:00</time>
      </trkpt>
      <trkpt lat="45.5706" lon="-0.97582">
        <ele>18</ele>
        <time>2024-09-15T16:26:29+02:00</time>
      </trkpt>
      <trkpt lat="45.5707" lon="-0.97611">
        <ele>20</ele>
        <time>2024-09-15T16:26:51+02:00</time>
      </trkpt>
      <trkpt lat="45.57085" lon="-0.97637">
        <ele>23</ele>
        <time>2024-09-15T16:27:15+02:00</time>
      </trkpt>
      <trkpt lat="45.57097" lon="-0.97666">
        <ele>24</ele>
        <time>2024-09-15T16:27:35+02:00</time>
      </trkpt>
      <trkpt lat="45.5711" lon="-0.97693">
        <ele>26</ele>
        <time>2024-09-15T16:27:55+02:00</time>
      </trkpt>
      <trkpt lat="45.57132" lon="-0.97704">
        <ele>28</ele>
        <time>2024-09-15T16:28:14+02:00</time>
      </trkpt>
      <trkpt lat="45.57157" lon="-0.97709">
        <ele>30</ele>
        <time>2024-09-15T16:28:37+02:00</time>
      </trkpt>
      <trkpt lat="45.57172" lon="-0.97733">
        <ele>31</ele>
        <time>2024-09-15T16:29:04+02:00</time>
      </trkpt>
      <trkpt lat="45.57176" lon="-0.97765">
        <ele>31</ele>
        <time>2024-09-15T16:29:44+02:00</time>
      </trkpt>
      <trkpt lat="45.57177" lon="-0.97797">
        <ele>31</ele>
        <time>2024-09-15T16:30:43+02:00</time>
      </trkpt>
      <trkpt lat="45.57175" lon="-0.9783">
        <ele>31</ele>
        <time>2024-09-15T16:31:04+02:00</time>
      </trkpt>
      <trkpt lat="45.57191" lon="-0.97858">
        <ele>32</ele>
        <time>2024-09-15T16:31:34+02:00</time>
      </trkpt>
      <trkpt lat="45.57214" lon="-0.97855">
        <ele>33</ele>
        <time>2024-09-15T16:31:58+02:00</time>
      </trkpt>
      <trkpt lat="45.57237" lon="-0.97856">
        <ele>34</ele>
        <time>2024-09-15T16:32:23+02:00</time>
      </trkpt>
      <trkpt lat="45.57255" lon="-0.97879">
        <ele>33</ele>
        <time>2024-09-15T16:32:42+02:00</time>
      </trkpt>
      <trkpt lat="45.57264" lon="-0.9791">
        <ele>31</ele>
        <time>2024-09-15T16:33:05+02:00</time>
      </trkpt>
      <trkpt lat="45.57261" lon="-0.97942">
        <ele>29</ele>
        <time>2024-09-15T16:33:23+02:00</time>
      </trkpt>
      <trkpt lat="45.57266" lon="-0.97974">
        <ele>26</ele>
        <time>2024-09-15T16:33:47+02:00</time>
      </trkpt>
      <trkpt lat="45.57275" lon="-0.98004">
        <ele>23</ele>
        <time>2024-09-15T16:34:07+02:00</time>
      </trkpt>
      <trkpt lat="45.57285" lon="-0.98033">
        <ele>19</ele>
        <time>2024-09-15T16:34:32+02:00</time>
      </trkpt>
      <trkpt lat="45.57292" lon="-0.98064">
        <ele>14</ele>
        <time>2024-09-15T16:35:05+02:00</time>
      </trkpt>
      <trkpt lat="45.57287" lon="-0.98097">
        <ele>10</ele>
        <time>2024-09-15T16:41:40+02:00</time>
      </trkpt>
      <trkpt lat="45.57282" lon="-0.98129">
        <ele>6</ele>
        <time>2024-09-15T16:42:04+02:00</time>
      </trkpt>
      <trkpt lat="45.57287" lon="-0.98161">
        <ele>3</ele>
        <time>2024-09-15T16:42:30+02:00</time>
      </trkpt>
      <trkpt lat="45.57302" lon="-0.98187">
        <ele>1</ele>
        <time>2024-09-15T16:42:51+02:00</time>
      </trkpt>
      <trkpt lat="45.57316" lon="-0.98213">
        <ele>2.1</ele>
        <time>2024-09-15T16:43:12+02:00</time>
      </trkpt>
      <trkpt lat="45.57335" lon="-0.98231">
        <ele>2</ele>
        <time>2024-09-15T16:43:32+02:00</time>
      </trkpt>
      <trkpt lat="45.57355" lon="-0.98247">
        <ele>2.1</ele>
        <time>2024-09-15T16:44:04+02:00</time>
      </trkpt>
      <trkpt lat="45.57377" lon="-0.98257">
        <ele>2</ele>
        <time>2024-09-15T16:44:28+02:00</time>
      </trkpt>
      <trkpt lat="45.57399" lon="-0.98268">
        <ele>2</ele>
        <time>2024-09-15T16:44:50+02:00</time>
      </trkpt>
      <trkpt lat="45.57421" lon="-0.98277">
        <ele>2</ele>
        <time>2024-09-15T16:45:12+02:00</time>
      </trkpt>
      <trkpt lat="45.57443" lon="-0.98286">
        <ele>2</ele>
        <time>2024-09-15T16:45:34+02:00</time>
      </trkpt>
      <trkpt lat="45.57464" lon="-0.98297">
        <ele>2</ele>
        <time>2024-09-15T16:45:54+02:00</time>
      </trkpt>
      <trkpt lat="45.57486" lon="-0.98308">
        <ele>2</ele>
        <time>2024-09-15T16:46:14+02:00</time>
      </trkpt>
      <trkpt lat="45.57508" lon="-0.98317">
        <ele>2</ele>
        <time>2024-09-15T16:46:34+02:00</time>
      </trkpt>
      <trkpt lat="45.5753" lon="-0.98328">
        <ele>2</ele>
        <time>2024-09-15T16:46:54+02:00</time>
      </trkpt>
      <trkpt lat="45.57553" lon="-0.98334">
        <ele>2</ele>
        <time>2024-09-15T16:47:15+02:00</time>
      </trkpt>
      <trkpt lat="45.57575" lon="-0.98346">
        <ele>2.4</ele>
        <time>2024-09-15T16:47:35+02:00</time>
      </trkpt>
      <trkpt lat="45.57597" lon="-0.98357">
        <ele>1</ele>
        <time>2024-09-15T16:47:55+02:00</time>
      </trkpt>
      <trkpt lat="45.57619" lon="-0.98364">
        <ele>4</ele>
        <time>2024-09-15T16:48:15+02:00</time>
      </trkpt>
      <trkpt lat="45.57643" lon="-0.98367">
        <ele>7</ele>
        <time>2024-09-15T16:48:37+02:00</time>
      </trkpt>
      <trkpt lat="45.57666" lon="-0.98374">
        <ele>10</ele>
        <time>2024-09-15T16:48:59+02:00</time>
      </trkpt>
      <trkpt lat="45.57688" lon="-0.98374">
        <ele>12</ele>
        <time>2024-09-15T16:49:23+02:00</time>
      </trkpt>
      <trkpt lat="45.57709" lon="-0.98361">
        <ele>13</ele>
        <time>2024-09-15T16:55:03+02:00</time>
      </trkpt>
      <trkpt lat="45.57724" lon="-0.98387">
        <ele>17</ele>
        <time>2024-09-15T16:55:48+02:00</time>
      </trkpt>
      <trkpt lat="45.57711" lon="-0.98415">
        <ele>18</ele>
        <time>2024-09-15T16:56:20+02:00</time>
      </trkpt>
      <trkpt lat="45.57696" lon="-0.9844">
        <ele>18</ele>
        <time>2024-09-15T16:56:40+02:00</time>
      </trkpt>
      <trkpt lat="45.5768" lon="-0.98463">
        <ele>16</ele>
        <time>2024-09-15T16:57:11+02:00</time>
      </trkpt>
      <trkpt lat="45.57659" lon="-0.98476">
        <ele>13</ele>
        <time>2024-09-15T16:58:13+02:00</time>
      </trkpt>
      <trkpt lat="45.57646" lon="-0.98503">
        <ele>12</ele>
        <time>2024-09-15T16:58:46+02:00</time>
      </trkpt>
      <trkpt lat="45.57637" lon="-0.98533">
        <ele>12</ele>
        <time>2024-09-15T16:59:06+02:00</time>
      </trkpt>
      <trkpt lat="45.57631" lon="-0.98564">
        <ele>12</ele>
        <time>2024-09-15T16:59:32+02:00</time>
      </trkpt>
      <trkpt lat="45.57624" lon="-0.98596">
        <ele>11</ele>
        <time>2024-09-15T16:59:57+02:00</time>
      </trkpt>
      <trkpt lat="45.57625" lon="-0.9863">
        <ele>9</ele>
        <time>2024-09-15T17:00:20+02:00</time>
      </trkpt>
      <trkpt lat="45.57644" lon="-0.98648">
        <ele>12</ele>
        <time>2024-09-15T17:00:53+02:00</time>
      </trkpt>
      <trkpt lat="45.5766" lon="-0.9867">
        <ele>13</ele>
        <time>2024-09-15T17:01:32+02:00</time>
      </trkpt>
      <trkpt lat="45.5767" lon="-0.98699">
        <ele>13</ele>
        <time>2024-09-15T17:01:53+02:00</time>
      </trkpt>
      <trkpt lat="45.57677" lon="-0.98731">
        <ele>13</ele>
        <time>2024-09-15T17:02:15+02:00</time>
      </trkpt>
      <trkpt lat="45.57684" lon="-0.98763">
        <ele>13</ele>
        <time>2024-09-15T17:02:37+02:00</time>
      </trkpt>
      <trkpt lat="45.57696" lon="-0.98791">
        <ele>15</ele>
        <time>2024-09-15T17:02:58+02:00</time>
      </trkpt>
      <trkpt lat="45.57706" lon="-0.9882">
        <ele>16</ele>
        <time>2024-09-15T17:03:24+02:00</time>
      </trkpt>
      <trkpt lat="45.57708" lon="-0.98852">
        <ele>16</ele>
        <time>2024-09-15T17:03:51+02:00</time>
      </trkpt>
      <trkpt lat="45.57697" lon="-0.98883">
        <ele>14</ele>
        <time>2024-09-15T17:04:16+02:00</time>
      </trkpt>
      <trkpt lat="45.57689" lon="-0.98915">
        <ele>12</ele>
        <time>2024-09-15T17:04:37+02:00</time>
      </trkpt>
      <trkpt lat="45.57676" lon="-0.98942">
        <ele>10</ele>
        <time>2024-09-15T17:05:08+02:00</time>
      </trkpt>
      <trkpt lat="45.57679" lon="-0.98974">
        <ele>11</ele>
        <time>2024-09-15T17:05:58+02:00</time>
      </trkpt>
      <trkpt lat="45.5767" lon="-0.99006">
        <ele>11</ele>
        <time>2024-09-15T17:07:35+02:00</time>
      </trkpt>
      <trkpt lat="45.57667" lon="-0.99038">
        <ele>10</ele>
        <time>2024-09-15T17:08:26+02:00</time>
      </trkpt>
      <trkpt lat="45.57662" lon="-0.9907">
        <ele>10</ele>
        <time>2024-09-15T17:10:04+02:00</time>
      </trkpt>
      <trkpt lat="45.57675" lon="-0.99098">
        <ele>10</ele>
        <time>2024-09-15T17:10:53+02:00</time>
      </trkpt>
      <trkpt lat="45.57694" lon="-0.99115">
        <ele>12</ele>
        <time>2024-09-15T17:11:18+02:00</time>
      </trkpt>
      <trkpt lat="45.57711" lon="-0.99138">
        <ele>13</ele>
        <time>2024-09-15T17:14:58+02:00</time>
      </trkpt>
      <trkpt lat="45.57734" lon="-0.99137">
        <ele>16</ele>
        <time>2024-09-15T17:15:28+02:00</time>
      </trkpt>
      <trkpt lat="45.57756" lon="-0.99144">
        <ele>18</ele>
        <time>2024-09-15T17:16:03+02:00</time>
      </trkpt>
      <trkpt lat="45.57778" lon="-0.99148">
        <ele>19</ele>
        <time>2024-09-15T17:16:56+02:00</time>
      </trkpt>
      <trkpt lat="45.57801" lon="-0.99157">
        <ele>20</ele>
        <time>2024-09-15T17:17:19+02:00</time>
      </trkpt>
      <trkpt lat="45.57823" lon="-0.99162">
        <ele>21</ele>
        <time>2024-09-15T17:17:40+02:00</time>
      </trkpt>
      <trkpt lat="45.57841" lon="-0.9914">
        <ele>21</ele>
        <time>2024-09-15T17:18:03+02:00</time>
      </trkpt>
      <trkpt lat="45.57857" lon="-0.99117">
        <ele>20</ele>
        <time>2024-09-15T17:18:24+02:00</time>
      </trkpt>
      <trkpt lat="45.57873" lon="-0.99093">
        <ele>21</ele>
        <time>2024-09-15T17:18:45+02:00</time>
      </trkpt>
      <trkpt lat="45.57894" lon="-0.99077">
        <ele>20</ele>
        <time>2024-09-15T17:19:05+02:00</time>
      </trkpt>
      <trkpt lat="45.57911" lon="-0.99057">
        <ele>21</ele>
        <time>2024-09-15T17:19:29+02:00</time>
      </trkpt>
      <trkpt lat="45.57927" lon="-0.99034">
        <ele>22</ele>
        <time>2024-09-15T17:19:47+02:00</time>
      </trkpt>
      <trkpt lat="45.57944" lon="-0.99012">
        <ele>23</ele>
        <time>2024-09-15T17:20:10+02:00</time>
      </trkpt>
      <trkpt lat="45.57967" lon="-0.99002">
        <ele>22</ele>
        <time>2024-09-15T17:20:31+02:00</time>
      </trkpt>
      <trkpt lat="45.5799" lon="-0.99005">
        <ele>20</ele>
        <time>2024-09-15T17:20:53+02:00</time>
      </trkpt>
      <trkpt lat="45.58013" lon="-0.99006">
        <ele>17</ele>
        <time>2024-09-15T17:21:13+02:00</time>
      </trkpt>
      <trkpt lat="45.58033" lon="-0.98988">
        <ele>16</ele>
        <time>2024-09-15T17:21:35+02:00</time>
      </trkpt>
      <trkpt lat="45.5805" lon="-0.98967">
        <ele>16</ele>
        <time>2024-09-15T17:21:56+02:00</time>
      </trkpt>
      <trkpt lat="45.58067" lon="-0.98945">
        <ele>16</ele>
        <time>2024-09-15T17:22:16+02:00</time>
      </trkpt>
      <trkpt lat="45.58084" lon="-0.98921">
        <ele>16</ele>
        <time>2024-09-15T17:22:40+02:00</time>
      </trkpt>
      <trkpt lat="45.581" lon="-0.98898">
        <ele>16</ele>
        <time>2024-09-15T17:22:58+02:00</time>
      </trkpt>
      <trkpt lat="45.5812" lon="-0.98882">
        <ele>15</ele>
        <time>2024-09-15T17:23:16+02:00</time>
      </trkpt>
      <trkpt lat="45.58143" lon="-0.98873">
        <ele>14</ele>
        <time>2024-09-15T17:23:33+02:00</time>
      </trkpt>
      <trkpt lat="45.58165" lon="-0.98864">
        <ele>12</ele>
        <time>2024-09-15T17:23:51+02:00</time>
      </trkpt>
      <trkpt lat="45.58189" lon="-0.9886">
        <ele>12</ele>
        <time>2024-09-15T17:24:10+02:00</time>
      </trkpt>
      <trkpt lat="45.58212" lon="-0.98857">
        <ele>12</ele>
        <time>2024-09-15T17:24:29+02:00</time>
      </trkpt>
      <trkpt lat="45.58235" lon="-0.98855">
        <ele>12</ele>
        <time>2024-09-15T17:26:55+02:00</time>
      </trkpt>
      <trkpt lat="45.58258" lon="-0.98851">
        <ele>11</ele>
        <time>2024-09-15T17:27:19+02:00</time>
      </trkpt>
      <trkpt lat="45.5828" lon="-0.98842">
        <ele>11</ele>
        <time>2024-09-15T17:27:41+02:00</time>
      </trkpt>
      <trkpt lat="45.583" lon="-0.98825">
        <ele>11</ele>
        <time>2024-09-15T17:27:59+02:00</time>
      </trkpt>
      <trkpt lat="45.58318" lon="-0.98804">
        <ele>11</ele>
        <time>2024-09-15T17:28:16+02:00</time>
      </trkpt>
      <trkpt lat="45.58331" lon="-0.98777">
        <ele>11</ele>
        <time>2024-09-15T17:28:34+02:00</time>
      </trkpt>
      <trkpt lat="45.58342" lon="-0.98806">
        <ele>10</ele>
        <time>2024-09-15T17:29:13+02:00</time>
      </trkpt>
      <trkpt lat="45.58347" lon="-0.98838">
        <ele>8</ele>
        <time>2024-09-15T17:29:42+02:00</time>
      </trkpt>
      <trkpt lat="45.58357" lon="-0.98868">
        <ele>5</ele>
        <time>2024-09-15T17:30:07+02:00</time>
      </trkpt>
      <trkpt lat="45.58377" lon="-0.98883">
        <ele>3</ele>
        <time>2024-09-15T17:30:27+02:00</time>
      </trkpt>
      <trkpt lat="45.58398" lon="-0.98894">
        <ele>2</ele>
        <time>2024-09-15T17:30:49+02:00</time>
      </trkpt>
      <trkpt lat="45.58421" lon="-0.98901">
        <ele>1</ele>
        <time>2024-09-15T17:31:11+02:00</time>
      </trkpt>
      <trkpt lat="45.58444" lon="-0.98901">
        <ele>1</ele>
        <time>2024-09-15T17:31:31+02:00</time>
      </trkpt>
      <trkpt lat="45.58468" lon="-0.98903">
        <ele>1</ele>
        <time>2024-09-15T17:31:51+02:00</time>
      </trkpt>
      <trkpt lat="45.58491" lon="-0.98906">
        <ele>1</ele>
        <time>2024-09-15T17:32:12+02:00</time>
      </trkpt>
      <trkpt lat="45.58514" lon="-0.9891">
        <ele>1</ele>
        <time>2024-09-15T17:32:34+02:00</time>
      </trkpt>
      <trkpt lat="45.58537" lon="-0.98914">
        <ele>2.1</ele>
        <time>2024-09-15T17:32:56+02:00</time>
      </trkpt>
      <trkpt lat="45.58559" lon="-0.98921">
        <ele>2</ele>
        <time>2024-09-15T17:33:17+02:00</time>
      </trkpt>
      <trkpt lat="45.58582" lon="-0.98927">
        <ele>2.3</ele>
        <time>2024-09-15T17:33:37+02:00</time>
      </trkpt>
      <trkpt lat="45.58604" lon="-0.98933">
        <ele>2.3</ele>
        <time>2024-09-15T17:33:59+02:00</time>
      </trkpt>
      <trkpt lat="45.58626" lon="-0.98941">
        <ele>2.1</ele>
        <time>2024-09-15T17:34:19+02:00</time>
      </trkpt>
      <trkpt lat="45.58649" lon="-0.9895">
        <ele>2.1</ele>
        <time>2024-09-15T17:34:38+02:00</time>
      </trkpt>
      <trkpt lat="45.58671" lon="-0.98958">
        <ele>2.1</ele>
        <time>2024-09-15T17:34:56+02:00</time>
      </trkpt>
      <trkpt lat="45.58693" lon="-0.98965">
        <ele>2.2</ele>
        <time>2024-09-15T17:35:15+02:00</time>
      </trkpt>
      <trkpt lat="45.58715" lon="-0.98974">
        <ele>1.9</ele>
        <time>2024-09-15T17:35:34+02:00</time>
      </trkpt>
      <trkpt lat="45.58739" lon="-0.98969">
        <ele>2.6</ele>
        <time>2024-09-15T17:35:54+02:00</time>
      </trkpt>
      <trkpt lat="45.58761" lon="-0.98957">
        <ele>3</ele>
        <time>2024-09-15T17:36:14+02:00</time>
      </trkpt>
      <trkpt lat="45.58781" lon="-0.98939">
        <ele>3.2</ele>
        <time>2024-09-15T17:36:33+02:00</time>
      </trkpt>
      <trkpt lat="45.58792" lon="-0.98912">
        <ele>1</ele>
        <time>2024-09-15T17:37:00+02:00</time>
      </trkpt>
      <trkpt lat="45.58801" lon="-0.98882">
        <ele>6</ele>
        <time>2024-09-15T17:37:26+02:00</time>
      </trkpt>
      <trkpt lat="45.58801" lon="-0.98849">
        <ele>11</ele>
        <time>2024-09-15T17:37:51+02:00</time>
      </trkpt>
      <trkpt lat="45.58796" lon="-0.98818">
        <ele>14</ele>
        <time>2024-09-15T17:38:14+02:00</time>
      </trkpt>
    </trkseg>
  </trk>
</gpx>